createdAt,value
2023-03-30T00:02:00.459Z,9.30
2023-03-30T00:04:35.064Z,5.20
2023-03-30T00:07:08.776Z,6.40
2023-03-30T00:09:43.896Z,4.38
2023-03-30T00:12:21.048Z,4.43
2023-03-30T00:14:53.667Z,5.18
2023-03-30T00:17:26.696Z,10.48
2023-03-30T00:20:02.521Z,6.65
2023-03-30T00:22:35.814Z,4.80
2023-03-30T00:25:09.289Z,4.95
2023-03-30T00:27:42.559Z,7.05
2023-03-30T00:30:17.928Z,6.93
2023-03-30T00:32:51.091Z,4.45
2023-03-30T00:35:24.213Z,10.75
2023-03-30T00:37:58.004Z,9.40
2023-03-30T00:40:32.009Z,3.20
2023-03-30T00:43:06.873Z,8.65
2023-03-30T00:45:41.380Z,3.22
2023-03-30T00:48:15.839Z,3.70
2023-03-30T00:50:57.392Z,4.97
2023-03-30T00:53:32.584Z,8.25
2023-03-30T00:56:08.027Z,6.63
2023-03-30T00:58:41.768Z,6.13
2023-03-30T01:01:16.450Z,3.83
2023-03-30T01:03:51.153Z,7.10
2023-03-30T01:06:25.541Z,4.00
2023-03-30T01:08:58.592Z,7.40
2023-03-30T01:11:31.251Z,6.22
2023-03-30T01:14:06.523Z,7.38
2023-03-30T01:16:40.076Z,4.00
2023-03-30T01:19:29.953Z,6.70
2023-03-30T01:22:13.350Z,3.13
2023-03-30T01:25:05.906Z,4.88
2023-03-30T01:27:57.632Z,3.30
2023-03-30T01:30:49.283Z,4.20
2023-03-30T01:33:23.555Z,2.72
2023-03-30T01:35:58.274Z,4.75
2023-03-30T01:38:57.449Z,6.78
2023-03-30T01:41:34.295Z,6.55
2023-03-30T01:44:07.091Z,2.72
2023-03-30T01:46:48.506Z,4.47
2023-03-30T01:49:32.512Z,5.75
2023-03-30T01:52:12.957Z,3.50
2023-03-30T01:54:51.765Z,6.28
2023-03-30T01:57:44.953Z,6.40
2023-03-30T02:00:19.768Z,7.07
2023-03-30T02:03:03.151Z,5.75
2023-03-30T02:05:36.670Z,7.20
2023-03-30T02:08:12.018Z,5.43
2023-03-30T02:10:45.570Z,6.10
2023-03-30T02:13:19.831Z,3.20
2023-03-30T02:15:59.446Z,5.20
2023-03-30T02:18:32.577Z,5.70
2023-03-30T02:21:06.112Z,8.23
2023-03-30T02:23:42.800Z,4.47
2023-03-30T02:26:16.028Z,6.50
2023-03-30T02:28:51.099Z,5.30
2023-03-30T02:31:23.845Z,5.18
2023-03-30T02:34:06.037Z,7.35
2023-03-30T02:39:14.695Z,8.38
2023-03-30T02:41:47.692Z,10.30
2023-03-30T02:44:41.704Z,15.48
2023-03-30T02:47:22.671Z,41.35
2023-03-30T02:49:59.782Z,64.50
2023-03-30T02:52:49.675Z,47.25
2023-03-30T02:55:35.061Z,100.38
2023-03-30T02:58:41.214Z,37.63
2023-03-30T03:01:42.171Z,32.22
2023-03-30T03:04:19.349Z,77.45
2023-03-30T03:07:13.332Z,96.93
2023-03-30T03:09:47.720Z,67.38
2023-03-30T03:12:21.567Z,75.07
2023-03-30T03:14:54.491Z,61.15
2023-03-30T03:17:35.042Z,68.65
2023-03-30T03:20:10.908Z,38.05
2023-03-30T03:22:44.027Z,57.25
2023-03-30T03:25:16.989Z,27.73
2023-03-30T03:28:01.284Z,27.25
2023-03-30T03:30:41.032Z,21.73
2023-03-30T03:33:20.775Z,15.73
2023-03-30T03:36:23.309Z,6.20
2023-03-30T03:38:58.831Z,8.60
2023-03-30T03:41:33.576Z,9.25
2023-03-30T03:44:06.709Z,6.00
2023-03-30T03:46:39.522Z,6.82
2023-03-30T03:49:12.543Z,4.53
